Terminal Aerodrome Forecast
Issued by NWS

Home | Current Version | Previous Version | Text Only | Print | Product List | Glossary On
Versions: 1 2 3 4 5 6 7 8 9 10 11 12 13
000
FTUS43 KILX 230500
TAFBMI
TAF
KBMI 230527Z 2306/2406 15004KT P6SM SCT250
     FM231500 19010G15KT P6SM BKN200
     FM232100 20010KT P6SM VCSH SCT030 BKN040
     FM240200 22006KT P6SM BKN035=

USA.gov is the U.S. government's official web portal to all federal, state and local government web resources and services.